Time;durP1;ratioP1;P1;durP2;ratioP2;P2;SDS_P1;SDS_P2;PMS_P1;PMS_P2;Temp;Humidity;BMP_temperature;BMP_pressure;BME280_temperature;BME280_humidity;BME280_pressure;Samples;Min_cycle;Max_cycle;Signal;HPM_P1;HPM_P2
2023/10/04 00:02:12;;;;;;;2.83;1.85;;;;;;;15.76;100.00;97749.03;5043476;28;20207;-54
2023/10/04 00:04:39;;;;;;;3.85;1.92;;;;;;;15.80;100.00;97750.41;5043796;28;20214;-53
2023/10/04 00:07:07;;;;;;;1.88;1.77;;;;;;;15.79;100.00;97748.75;5043368;28;20203;-53
2023/10/04 00:09:34;;;;;;;1.55;1.45;;;;;;;15.80;100.00;97755.72;5042774;28;20671;-54
2023/10/04 00:12:01;;;;;;;2.53;1.85;;;;;;;15.72;100.00;97763.66;5043414;28;20515;-54
2023/10/04 00:14:28;;;;;;;2.88;2.05;;;;;;;15.68;100.00;97759.59;5043798;28;20226;-52
2023/10/04 00:16:56;;;;;;;3.00;2.00;;;;;;;15.67;100.00;97765.91;5043149;28;20217;-54
2023/10/04 00:19:22;;;;;;;2.80;1.92;;;;;;;15.65;100.00;97767.91;5055358;28;20219;-52
2023/10/04 00:21:49;;;;;;;2.88;1.90;;;;;;;15.55;100.00;97759.13;5055313;28;20538;-52
2023/10/04 00:24:16;;;;;;;3.47;2.00;;;;;;;15.54;100.00;97757.41;5047819;28;20222;-50
2023/10/04 00:26:43;;;;;;;1.88;1.77;;;;;;;15.48;100.00;97755.28;5044095;28;20215;-53
2023/10/04 00:29:10;;;;;;;4.53;2.03;;;;;;;15.41;100.00;97756.84;5043369;28;20207;-52
2023/10/04 00:31:37;;;;;;;2.83;1.90;;;;;;;15.31;100.00;97753.38;5042507;28;20246;-53
2023/10/04 00:34:07;;;;;;;5.28;1.70;;;;;;;15.30;100.00;97747.22;5042682;28;20228;-52
2023/10/04 00:36:33;;;;;;;2.22;1.65;;;;;;;15.21;100.00;97747.25;5043246;28;20262;-53
2023/10/04 00:38:59;;;;;;;3.53;1.70;;;;;;;15.14;100.00;97744.34;5046873;28;20219;-52
2023/10/04 00:41:28;;;;;;;3.50;1.98;;;;;;;15.08;100.00;97738.75;5052049;28;20203;-53
2023/10/04 00:43:58;;;;;;;3.38;2.25;;;;;;;15.02;100.00;97747.31;5049820;28;20204;-50
2023/10/04 00:46:25;;;;;;;2.28;2.08;;;;;;;14.95;100.00;97741.69;5044781;28;20271;-51
2023/10/04 00:48:54;;;;;;;2.42;1.83;;;;;;;14.87;100.00;97745.09;5043486;28;20211;-53
2023/10/04 00:51:22;;;;;;;2.05;1.88;;;;;;;14.80;100.00;97744.00;5044350;28;20581;-53
2023/10/04 00:53:49;;;;;;;3.40;2.50;;;;;;;14.77;100.00;97741.59;5043533;28;20235;-50
2023/10/04 00:56:16;;;;;;;2.75;1.90;;;;;;;14.76;100.00;97736.44;5041895;28;20213;-52
2023/10/04 00:58:43;;;;;;;2.03;1.80;;;;;;;14.72;100.00;97741.19;5043315;28;20229;-53
2023/10/04 01:01:10;;;;;;;2.70;2.08;;;;;;;14.69;100.00;97735.31;5042985;28;20192;-52
2023/10/04 01:03:37;;;;;;;2.95;2.10;;;;;;;14.66;100.00;97735.59;5043906;28;20199;-53
2023/10/04 01:06:05;;;;;;;1.70;1.55;;;;;;;14.63;100.00;97725.25;5043867;28;20203;-52
2023/10/04 01:08:34;;;;;;;2.30;1.93;;;;;;;14.61;100.00;97717.38;5042667;28;20212;-50
2023/10/04 01:11:00;;;;;;;2.05;1.88;;;;;;;14.63;100.00;97720.72;5042810;28;20277;-53
2023/10/04 01:13:27;;;;;;;1.80;1.70;;;;;;;14.63;100.00;97723.38;5042427;28;20243;-54
2023/10/04 01:15:55;;;;;;;1.98;1.63;;;;;;;14.64;100.00;97719.75;5043118;28;20242;-52
2023/10/04 01:18:22;;;;;;;2.03;1.83;;;;;;;14.66;100.00;97724.94;5043961;28;20195;-53
2023/10/04 01:20:49;;;;;;;2.58;2.13;;;;;;;14.63;100.00;97715.41;5042169;28;20281;-52
2023/10/04 01:23:18;;;;;;;2.15;1.95;;;;;;;14.54;100.00;97721.59;5042157;28;20249;-53
2023/10/04 01:25:46;;;;;;;2.47;2.25;;;;;;;14.54;100.00;97721.59;5042072;28;20211;-51
2023/10/04 01:28:17;;;;;;;2.57;1.90;;;;;;;14.54;100.00;97721.59;5041646;28;20645;-53
2023/10/04 01:30:45;;;;;;;2.10;1.73;;;;;;;14.44;100.00;97726.94;5042638;28;20211;-52
2023/10/04 01:33:15;;;;;;;3.00;1.92;;;;;;;14.35;100.00;97726.91;5042782;28;20331;-53
2023/10/04 01:35:42;;;;;;;2.10;1.90;;;;;;;14.23;100.00;97718.22;5041581;28;20198;-51
2023/10/04 01:38:09;;;;;;;3.58;1.77;;;;;;;14.15;100.00;97715.41;5042135;28;20660;-51
2023/10/04 01:40:38;;;;;;;2.17;1.83;;;;;;;14.04;100.00;97722.66;5041710;28;20199;-52
2023/10/04 01:43:14;;;;;;;2.28;2.08;;;;;;;14.05;100.00;97716.38;5041387;28;20684;-51
2023/10/04 01:45:43;;;;;;;2.38;1.83;;;;;;;14.07;100.00;97712.59;5042306;28;20190;-53
2023/10/04 01:48:09;;;;;;;2.67;1.90;;;;;;;14.06;100.00;97716.25;5042333;28;20524;-52
2023/10/04 01:50:36;;;;;;;1.77;1.53;;;;;;;14.01;100.00;97713.16;5041855;28;20212;-54
2023/10/04 01:53:04;;;;;;;3.38;1.70;;;;;;;13.96;100.00;97702.91;5041556;28;20204;-53
2023/10/04 01:55:31;;;;;;;4.33;2.07;;;;;;;13.99;100.00;97706.28;5041161;28;20730;-51
2023/10/04 01:57:59;;;;;;;4.20;1.80;;;;;;;13.94;100.00;97709.34;5042134;28;20208;-52
2023/10/04 02:00:28;;;;;;;3.70;2.50;;;;;;;13.86;100.00;97709.19;5041504;28;20236;-52
2023/10/04 02:02:56;;;;;;;3.60;2.20;;;;;;;13.90;100.00;97706.13;5041943;28;20311;-53
2023/10/04 02:05:26;;;;;;;4.87;2.10;;;;;;;13.87;100.00;97711.72;5041702;28;20199;-52
2023/10/04 02:07:54;;;;;;;2.43;2.10;;;;;;;13.81;100.00;97709.63;5041495;28;20213;-52
2023/10/04 02:10:20;;;;;;;2.10;2.00;;;;;;;13.83;100.00;97712.97;5041456;28;20199;-54
2023/10/04 02:12:47;;;;;;;3.30;2.35;;;;;;;13.82;100.00;97713.94;5041718;28;20218;-53
2023/10/04 02:15:17;;;;;;;2.67;2.05;;;;;;;13.87;100.00;97717.03;5041506;28;20231;-53
2023/10/04 02:17:44;;;;;;;3.03;1.85;;;;;;;13.90;100.00;97708.78;5041564;28;20239;-53
2023/10/04 02:20:18;;;;;;;3.40;2.20;;;;;;;13.95;100.00;97703.06;5040792;28;20203;-52
2023/10/04 02:22:44;;;;;;;2.72;2.30;;;;;;;13.96;100.00;97705.56;5041640;28;20195;-53
2023/10/04 02:25:14;;;;;;;2.35;1.80;;;;;;;14.00;100.00;97700.81;5040837;28;20204;-58
2023/10/04 02:27:41;;;;;;;2.35;1.85;;;;;;;14.07;100.00;97701.09;5041147;28;20286;-53
2023/10/04 02:30:14;;;;;;;3.40;2.20;;;;;;;14.05;100.00;97703.06;5041639;28;20204;-55
2023/10/04 02:32:43;;;;;;;6.13;2.00;;;;;;;14.04;100.00;97696.06;5041317;28;20264;-53
2023/10/04 02:35:13;;;;;;;4.00;2.20;;;;;;;14.15;100.00;97698.59;5042693;28;20273;-54
2023/10/04 02:37:42;;;;;;;2.85;1.85;;;;;;;14.16;100.00;97694.97;5042445;28;20211;-53
2023/10/04 02:40:14;;;;;;;2.42;2.10;;;;;;;14.11;100.00;97699.84;5041500;28;20418;-52
2023/10/04 02:42:42;;;;;;;3.97;2.15;;;;;;;14.10;100.00;97704.31;5046292;28;20547;-52
2023/10/04 02:45:12;;;;;;;4.17;2.10;;;;;;;14.16;100.00;97705.59;5045072;28;20330;-54
2023/10/04 02:47:39;;;;;;;2.60;1.57;;;;;;;14.17;100.00;97702.78;5042710;28;20231;-52
2023/10/04 02:50:10;;;;;;;3.80;2.07;;;;;;;14.16;100.00;97705.59;5041125;28;20257;-51
2023/10/04 02:52:37;;;;;;;2.08;1.70;;;;;;;14.19;100.00;97713.31;5040790;28;20724;-53
2023/10/04 02:55:03;;;;;;;2.35;2.00;;;;;;;14.25;100.00;97710.06;5043810;28;20322;-54
2023/10/04 02:57:30;;;;;;;2.37;2.10;;;;;;;14.27;100.00;97711.63;5045053;28;20223;-54
2023/10/04 02:59:58;;;;;;;3.72;2.17;;;;;;;14.32;100.00;97705.88;5044837;28;20226;-51
2023/10/04 03:02:25;;;;;;;3.97;2.17;;;;;;;14.32;100.00;97706.72;5044836;28;20208;-53
2023/10/04 03:04:53;;;;;;;2.42;1.50;;;;;;;14.30;100.00;97713.16;5044376;28;20200;-52
2023/10/04 03:07:20;;;;;;;3.73;2.03;;;;;;;14.28;100.00;97715.94;5044711;28;20239;-53
2023/10/04 03:09:47;;;;;;;2.38;2.03;;;;;;;14.26;100.00;97711.75;5044836;28;20211;-52
2023/10/04 03:12:15;;;;;;;2.28;2.08;;;;;;;14.25;100.00;97726.03;5044733;28;20211;-51
2023/10/04 03:14:42;;;;;;;2.53;2.20;;;;;;;14.26;100.00;97717.09;5044913;28;20253;-52
2023/10/04 03:17:09;;;;;;;2.22;2.03;;;;;;;14.23;100.00;97714.72;5045237;28;20260;-54
2023/10/04 03:19:36;;;;;;;3.07;2.20;;;;;;;14.19;100.00;97719.47;5044183;28;20298;-52
2023/10/04 03:22:05;;;;;;;2.50;2.30;;;;;;;14.18;100.00;97720.44;5045269;28;20196;-52
2023/10/04 03:24:34;;;;;;;1.90;1.80;;;;;;;14.13;100.00;97719.19;5044999;28;20195;-52
2023/10/04 03:27:05;;;;;;;2.33;2.08;;;;;;;14.20;100.00;97733.63;5045501;28;20206;-54
2023/10/04 03:29:31;;;;;;;3.80;2.08;;;;;;;14.17;100.00;97732.03;5045905;28;20207;-55
2023/10/04 03:32:03;;;;;;;3.90;2.13;;;;;;;14.15;100.00;97736.69;5046544;28;20226;-54
2023/10/04 03:34:29;;;;;;;2.28;2.05;;;;;;;14.15;100.00;97735.84;5046592;28;20319;-55
2023/10/04 03:37:07;;;;;;;3.08;2.28;;;;;;;14.14;100.00;97735.00;5046848;28;20207;-54
2023/10/04 03:39:35;;;;;;;2.40;2.20;;;;;;;14.14;100.00;97744.78;5044961;28;20299;-53
2023/10/04 03:42:03;;;;;;;2.22;2.00;;;;;;;14.10;100.00;97735.44;5045399;28;20262;-54
2023/10/04 03:44:29;;;;;;;4.43;2.00;;;;;;;14.04;100.00;97735.97;5045669;28;20208;-55
2023/10/04 03:46:56;;;;;;;2.70;1.80;;;;;;;14.04;100.00;97727.97;5047847;28;20204;-54
2023/10/04 03:49:24;;;;;;;2.53;2.30;;;;;;;14.03;100.00;97732.44;5046698;28;20207;-53
2023/10/04 03:51:52;;;;;;;2.75;2.10;;;;;;;14.00;100.00;97738.06;5047620;28;20235;-54
2023/10/04 03:54:19;;;;;;;2.93;2.30;;;;;;;14.00;100.00;97734.53;5047622;28;20765;-54
2023/10/04 03:56:46;;;;;;;3.60;2.07;;;;;;;14.03;100.00;97736.97;5047641;28;20223;-54
2023/10/04 03:59:13;;;;;;;4.20;2.37;;;;;;;13.96;100.00;97737.50;5044829;28;20553;-54
2023/10/04 04:01:39;;;;;;;2.83;2.10;;;;;;;13.91;100.00;97739.72;5046376;28;20235;-54
2023/10/04 04:04:08;;;;;;;2.50;2.28;;;;;;;13.88;100.00;97740.00;5045467;28;20229;-54
2023/10/04 04:06:34;;;;;;;2.42;2.22;;;;;;;13.90;100.00;97738.03;5045497;28;20219;-54
2023/10/04 04:09:06;;;;;;;3.57;2.47;;;;;;;13.89;100.00;97736.34;5047183;28;20203;-53
2023/10/04 04:11:32;;;;;;;3.50;1.90;;;;;;;13.79;100.00;97735.50;5046610;28;20632;-54
2023/10/04 04:14:00;;;;;;;4.15;2.42;;;;;;;13.75;100.00;97738.56;5046250;28;20635;-52
2023/10/04 04:16:27;;;;;;;2.08;1.90;;;;;;;13.71;100.00;97742.47;5045852;28;20652;-53
2023/10/04 04:18:55;;;;;;;2.47;2.10;;;;;;;13.65;100.00;97738.53;5045228;28;20200;-54
2023/10/04 04:21:21;;;;;;;2.53;2.33;;;;;;;13.62;100.00;97741.47;5046166;28;20207;-54
2023/10/04 04:23:48;;;;;;;3.47;2.63;;;;;;;13.66;100.00;97745.53;5043321;28;20223;-54
2023/10/04 04:26:15;;;;;;;3.00;2.30;;;;;;;13.60;100.00;97739.94;5043760;28;20247;-51
2023/10/04 04:28:42;;;;;;;2.57;2.20;;;;;;;13.55;100.00;97742.97;5043339;28;20728;-53
2023/10/04 04:31:14;;;;;;;3.27;2.63;;;;;;;13.48;100.00;97741.00;5043127;28;20207;-54
2023/10/04 04:33:41;;;;;;;3.70;3.10;;;;;;;13.39;100.00;97740.81;5042875;28;20219;-53
2023/10/04 04:36:09;;;;;;;3.37;2.30;;;;;;;13.35;100.00;97741.22;5043709;28;20227;-52
2023/10/04 04:38:38;;;;;;;3.63;2.00;;;;;;;13.33;100.00;97741.34;5043468;28;20233;-52
2023/10/04 04:41:12;;;;;;;3.45;2.42;;;;;;;13.32;100.00;97749.47;5044297;28;20543;-50
2023/10/04 04:43:39;;;;;;;5.40;3.00;;;;;;;13.28;100.00;97762.19;5043884;28;20258;-54
2023/10/04 04:46:09;;;;;;;3.30;2.40;;;;;;;13.22;100.00;97761.84;5050704;28;20203;-52
2023/10/04 04:48:37;;;;;;;2.77;2.00;;;;;;;13.20;100.00;97766.47;5049673;28;20278;-55
2023/10/04 04:51:10;;;;;;;3.97;2.77;;;;;;;13.17;100.00;97769.38;5049416;28;20214;-54
2023/10/04 04:53:39;;;;;;;2.40;2.17;;;;;;;13.14;100.00;97759.03;5043055;28;20238;-54
2023/10/04 04:56:06;;;;;;;4.03;2.70;;;;;;;13.13;100.00;97773.28;5042327;28;20231;-53
2023/10/04 04:58:33;;;;;;;2.80;2.30;;;;;;;13.09;100.00;97771.81;5043043;28;20217;-53
2023/10/04 05:01:02;;;;;;;3.67;2.50;;;;;;;13.07;100.00;97771.97;5041750;28;20338;-53
2023/10/04 05:03:29;;;;;;;3.73;2.50;;;;;;;13.05;100.00;97762.41;5042549;28;20200;-54
2023/10/04 05:05:58;;;;;;;2.83;2.30;;;;;;;13.06;100.00;97759.66;5045302;28;20199;-53
2023/10/04 05:08:25;;;;;;;2.53;2.33;;;;;;;13.09;100.00;97761.19;5048288;28;20228;-54
2023/10/04 05:10:54;;;;;;;3.77;2.20;;;;;;;13.05;100.00;97765.94;5048846;28;20203;-53
2023/10/04 05:13:21;;;;;;;4.60;2.57;;;;;;;12.94;100.00;97769.50;5042983;28;20200;-52
2023/10/04 05:15:49;;;;;;;3.73;2.43;;;;;;;12.96;100.00;97772.88;5042218;28;20223;-52
2023/10/04 05:18:17;;;;;;;3.60;2.27;;;;;;;12.91;100.00;97780.38;5041548;28;20235;-53
2023/10/04 05:20:45;;;;;;;2.57;2.10;;;;;;;12.91;100.00;97785.69;5041130;28;20223;-52
2023/10/04 05:23:15;;;;;;;3.13;2.83;;;;;;;12.89;100.00;97787.59;5042501;28;20208;-52
2023/10/04 05:25:42;;;;;;;3.00;2.37;;;;;;;12.90;100.00;97789.31;5041744;28;20265;-52
2023/10/04 05:28:11;;;;;;;3.37;2.10;;;;;;;12.85;100.00;97796.84;5042171;28;20211;-53
2023/10/04 05:30:39;;;;;;;2.60;2.40;;;;;;;12.85;100.00;97794.19;5042032;28;20208;-53
2023/10/04 05:33:06;;;;;;;3.13;2.53;;;;;;;12.84;100.00;97794.28;5041959;28;20211;-51
2023/10/04 05:35:33;;;;;;;3.23;2.37;;;;;;;12.83;100.00;97792.59;5041992;28;20317;-51
2023/10/04 05:37:59;;;;;;;2.73;2.37;;;;;;;12.82;100.00;97791.75;5041983;28;20249;-54
2023/10/04 05:40:30;;;;;;;3.07;2.63;;;;;;;12.96;100.00;97793.28;5042008;28;20246;-52
2023/10/04 05:42:56;;;;;;;7.03;5.87;;;;;;;12.88;100.00;97801.88;5042738;28;20210;-51
2023/10/04 05:45:25;;;;;;;7.07;5.17;;;;;;;12.86;100.00;97797.66;5041762;28;20195;-53
2023/10/04 05:47:52;;;;;;;5.50;2.83;;;;;;;12.86;100.00;97803.81;5041845;28;20195;-54
2023/10/04 05:50:21;;;;;;;4.00;2.73;;;;;;;12.86;100.00;97797.66;5041794;28;20678;-54
2023/10/04 05:52:48;;;;;;;4.10;2.83;;;;;;;12.91;100.00;97806.94;5042443;28;20565;-53
2023/10/04 05:55:16;;;;;;;5.00;2.80;;;;;;;12.93;100.00;97806.81;5041594;28;20231;-53
2023/10/04 05:57:45;;;;;;;7.80;3.00;;;;;;;12.96;100.00;97803.91;5041868;28;20302;-51
2023/10/04 06:00:24;;;;;;;3.60;2.70;;;;;;;13.04;100.00;97806.72;5041128;28;20238;-54
2023/10/04 06:02:51;;;;;;;7.73;3.10;;;;;;;13.02;100.00;97816.66;5041778;28;20205;-53
2023/10/04 06:05:20;;;;;;;3.90;2.70;;;;;;;13.04;100.00;97816.53;5041404;28;20214;-52
2023/10/04 06:07:48;;;;;;;3.50;2.60;;;;;;;13.04;100.00;97805.91;5041509;28;20206;-53
2023/10/04 06:10:16;;;;;;;2.87;2.60;;;;;;;13.07;100.00;97810.94;5041509;28;20202;-54
2023/10/04 06:12:44;;;;;;;3.57;2.60;;;;;;;13.10;100.00;97819.53;5042582;28;20239;-53
2023/10/04 06:15:14;;;;;;;4.33;2.67;;;;;;;13.19;100.00;97812.59;5042297;28;20234;-52
2023/10/04 06:17:43;;;;;;;3.70;2.37;;;;;;;13.24;100.00;97819.22;5042892;28;20545;-53
2023/10/04 06:20:24;;;;;;;5.17;2.63;;;;;;;13.33;100.00;97822.88;5041725;28;20305;-52
2023/10/04 06:22:52;;;;;;;3.37;2.57;;;;;;;13.39;100.00;97825.03;5041566;28;20204;-51
2023/10/04 06:25:20;;;;;;;2.97;2.40;;;;;;;13.47;100.00;97822.53;5041205;28;20204;-51
2023/10/04 06:27:48;;;;;;;3.33;2.67;;;;;;;13.50;100.00;97814.28;5042012;28;20250;-51
2023/10/04 06:30:17;;;;;;;2.50;2.07;;;;;;;13.53;100.00;97813.19;5045697;28;20218;-53
2023/10/04 06:32:43;;;;;;;2.93;2.57;;;;;;;13.77;100.00;97811.91;5046968;28;20320;-53
2023/10/04 06:35:11;;;;;;;3.60;2.80;;;;;;;14.01;100.00;97816.03;5045181;28;20289;-53
2023/10/04 06:37:37;;;;;;;2.83;2.63;;;;;;;14.07;100.00;97821.63;5044895;28;20639;-53
2023/10/04 06:40:14;;;;;;;2.50;2.30;;;;;;;14.11;100.00;97819.56;5045633;28;20279;-52
2023/10/04 06:42:40;;;;;;;3.73;2.20;;;;;;;14.16;100.00;97820.00;5045650;28;20245;-53
2023/10/04 06:45:12;;;;;;;3.57;2.80;;;;;;;14.16;100.00;97823.50;5045077;28;20210;-53
2023/10/04 06:47:38;;;;;;;2.53;2.17;;;;;;;14.22;100.00;97814.97;5044688;28;20575;-52
2023/10/04 06:50:07;;;;;;;4.70;2.73;;;;;;;14.38;100.00;97825.94;5044433;28;20203;-52
2023/10/04 06:52:34;;;;;;;3.45;2.67;;;;;;;14.46;100.00;97814.59;5044606;28;20643;-52
2023/10/04 06:55:01;;;;;;;3.83;2.40;;;;;;;14.52;100.00;97816.72;5043518;28;20649;-52
2023/10/04 06:57:29;;;;;;;3.30;2.55;;;;;;;14.64;100.00;97810.28;5044686;28;20582;-52
2023/10/04 06:59:56;;;;;;;3.33;2.57;;;;;;;14.64;100.00;97801.44;5044245;28;20318;-53
2023/10/04 07:02:24;;;;;;;4.22;3.15;;;;;;;14.72;100.00;97805.09;5044837;28;20206;-54
2023/10/04 07:04:51;;;;;;;3.08;2.67;;;;;;;14.75;100.00;97803.97;5043968;28;20200;-54
2023/10/04 07:07:18;;;;;;;3.60;3.20;;;;;;;14.84;100.00;97800.47;5044226;28;20207;-54
2023/10/04 07:09:46;;;;;;;5.75;2.97;;;;;;;14.88;100.00;97800.03;5045101;28;20225;-52
2023/10/04 07:12:13;;;;;;;3.58;2.50;;;;;;;14.89;100.00;97806.22;5044781;28;20207;-52
2023/10/04 07:14:40;;;;;;;2.80;2.50;;;;;;;14.93;100.00;97808.44;5044936;28;20221;-51
2023/10/04 07:17:06;;;;;;;3.03;2.38;;;;;;;15.01;100.00;97813.06;5045889;28;20245;-52
2023/10/04 07:19:35;;;;;;;5.20;2.85;;;;;;;15.07;100.00;97803.66;5044040;28;20200;-53
2023/10/04 07:22:02;;;;;;;4.00;2.30;;;;;;;15.13;100.00;97792.44;5044548;28;20211;-51
2023/10/04 07:24:32;;;;;;;4.38;2.92;;;;;;;15.16;100.00;97795.63;5043704;28;20674;-51
2023/10/04 07:26:59;;;;;;;3.63;2.78;;;;;;;15.28;100.00;97801.66;5044679;28;20261;-52
2023/10/04 07:29:26;;;;;;;4.63;3.22;;;;;;;15.37;100.00;97790.97;5043916;28;20219;-52
2023/10/04 07:31:53;;;;;;;6.43;3.10;;;;;;;15.45;100.00;97793.75;5044881;28;20528;-53
2023/10/04 07:34:19;;;;;;;4.75;2.60;;;;;;;15.59;100.00;97799.66;5043846;28;20215;-52
2023/10/04 07:36:47;;;;;;;6.07;3.15;;;;;;;15.69;100.00;97801.28;5044186;28;20219;-52
2023/10/04 07:39:15;;;;;;;10.40;3.03;;;;;;;15.70;100.00;97797.63;5045428;28;20211;-51
2023/10/04 07:41:42;;;;;;;6.07;2.97;;;;;;;15.83;100.00;97798.16;5043320;28;20210;-51
2023/10/04 07:44:10;;;;;;;8.15;2.80;;;;;;;15.91;100.00;97787.56;5044284;28;20655;-54
2023/10/04 07:46:37;;;;;;;5.95;3.03;;;;;;;15.97;100.00;97793.31;5043689;28;20208;-51
2023/10/04 07:49:03;;;;;;;4.82;2.72;;;;;;;16.00;100.00;97798.34;5043634;28;20208;-52
2023/10/04 07:51:30;;;;;;;3.67;2.80;;;;;;;16.02;100.00;97802.53;5044717;28;20207;-51
2023/10/04 07:53:58;;;;;;;5.53;2.78;;;;;;;16.07;100.00;97810.09;5044861;28;20444;-51
2023/10/04 07:56:24;;;;;;;4.32;2.60;;;;;;;16.16;100.00;97814.53;5043883;28;20235;-52
2023/10/04 07:58:51;;;;;;;7.43;3.20;;;;;;;16.16;100.00;97815.38;5044128;28;20251;-52
2023/10/04 08:01:18;;;;;;;2.92;2.70;;;;;;;16.22;100.00;97813.94;5043110;28;20198;-52
2023/10/04 08:03:44;;;;;;;6.45;3.08;;;;;;;16.26;99.69;97804.66;5043268;28;20258;-53
2023/10/04 08:06:11;;;;;;;6.68;2.70;;;;;;;16.28;100.00;97798.16;5043192;28;20204;-53
2023/10/04 08:08:41;;;;;;;3.70;3.17;;;;;;;16.34;100.00;97802.06;5043204;28;20668;-53
2023/10/04 08:11:10;;;;;;;7.25;4.13;;;;;;;16.36;96.21;97808.94;5042785;28;20298;-51
2023/10/04 08:13:38;;;;;;;6.28;3.92;;;;;;;16.34;98.41;97816.25;5043346;28;20652;-51
2023/10/04 08:16:05;;;;;;;3.97;3.22;;;;;;;16.40;99.04;97812.97;5043254;28;20285;-52
2023/10/04 08:18:31;;;;;;;3.08;2.63;;;;;;;16.44;96.65;97818.84;5043052;28;20204;-53
2023/10/04 08:21:05;;;;;;;4.68;2.72;;;;;;;16.52;94.11;97816.25;5042617;28;20601;-53
2023/10/04 08:23:32;;;;;;;4.72;2.97;;;;;;;16.55;94.84;97805.28;5044697;28;20223;-51
2023/10/04 08:25:59;;;;;;;2.92;2.60;;;;;;;16.61;93.74;97812.72;5042989;28;20234;-51
2023/10/04 08:28:27;;;;;;;3.65;2.45;;;;;;;16.73;92.77;97807.97;5044052;28;20229;-50
2023/10/04 08:30:53;;;;;;;3.13;2.83;;;;;;;16.73;92.42;97807.97;5044381;28;20200;-51
2023/10/04 08:33:20;;;;;;;2.42;2.20;;;;;;;16.79;91.41;97813.53;5043710;28;20207;-52
2023/10/04 08:35:47;;;;;;;5.30;2.83;;;;;;;16.93;92.50;97810.34;5044419;28;20231;-52
2023/10/04 08:38:16;;;;;;;4.47;2.53;;;;;;;16.93;92.01;97807.66;5042775;28;20206;-52
2023/10/04 08:40:42;;;;;;;2.75;2.55;;;;;;;17.07;92.00;97813.47;5043168;28;20260;-51
2023/10/04 08:43:10;;;;;;;3.42;2.90;;;;;;;17.12;90.30;97808.47;5043265;28;20211;-52
2023/10/04 08:45:38;;;;;;;4.47;2.90;;;;;;;17.17;91.13;97800.84;5042912;28;20270;-54
2023/10/04 08:48:06;;;;;;;6.25;2.55;;;;;;;17.43;89.36;97809.69;5044115;28;20738;-53
2023/10/04 08:50:37;;;;;;;3.72;2.35;;;;;;;17.41;87.67;97806.34;5042541;28;20211;-53
2023/10/04 08:53:11;;;;;;;3.55;2.70;;;;;;;17.49;86.83;97803.75;5042618;28;20215;-51
2023/10/04 08:55:41;;;;;;;3.45;2.97;;;;;;;17.60;87.27;97795.50;5042523;28;20625;-52
2023/10/04 08:58:08;;;;;;;3.85;2.53;;;;;;;17.62;85.73;97800.66;5042556;28;20207;-50
2023/10/04 09:00:36;;;;;;;4.95;2.72;;;;;;;17.73;87.67;97803.06;5042386;28;20231;-52
2023/10/04 09:03:05;;;;;;;4.75;2.80;;;;;;;17.86;85.74;97788.25;5042684;28;20200;-52
2023/10/04 09:05:33;;;;;;;3.47;2.60;;;;;;;18.08;85.57;97785.97;5042734;28;20210;-53
2023/10/04 09:08:01;;;;;;;4.75;2.55;;;;;;;18.30;84.25;97782.72;5043163;28;20289;-52
2023/10/04 09:10:28;;;;;;;3.30;2.42;;;;;;;18.51;82.51;97780.44;5042151;28;20204;-52
2023/10/04 09:12:54;;;;;;;3.58;2.55;;;;;;;18.63;82.56;97776.47;5042422;28;20207;-51
2023/10/04 09:15:21;;;;;;;4.85;2.22;;;;;;;18.45;81.26;97770.38;5042607;28;20208;-51
2023/10/04 09:17:55;;;;;;;3.28;2.53;;;;;;;18.59;80.37;97769.75;5041844;28;20314;-52
2023/10/04 09:20:26;;;;;;;4.43;2.80;;;;;;;18.89;78.81;97771.78;5041977;28;20616;-52
2023/10/04 09:22:52;;;;;;;2.53;2.33;;;;;;;19.18;79.80;97771.25;5042342;28;20199;-51
2023/10/04 09:25:20;;;;;;;3.33;2.10;;;;;;;19.51;79.28;97766.72;5042342;28;20234;-52
2023/10/04 09:27:54;;;;;;;4.28;2.40;;;;;;;19.70;78.48;97760.09;5042302;28;20211;-51
2023/10/04 09:30:22;;;;;;;5.57;2.80;;;;;;;19.83;74.05;97755.88;5043261;28;20206;-51
2023/10/04 09:32:49;;;;;;;3.80;2.58;;;;;;;19.38;75.47;97755.63;5042966;28;20207;-52
2023/10/04 09:35:18;;;;;;;2.60;2.30;;;;;;;19.12;80.81;97755.84;5042106;28;20211;-52
2023/10/04 09:37:46;;;;;;;4.15;2.10;;;;;;;19.35;79.81;97755.97;5042330;28;20698;-54
2023/10/04 09:40:16;;;;;;;3.90;2.35;;;;;;;19.77;77.85;97750.34;5042464;28;20211;-53
2023/10/04 09:42:51;;;;;;;4.78;2.28;;;;;;;19.73;73.65;97746.34;5043483;28;20211;-51
2023/10/04 09:45:20;;;;;;;4.22;2.55;;;;;;;19.39;75.27;97751.94;5041837;28;20207;-51
2023/10/04 09:47:47;;;;;;;3.42;2.50;;;;;;;19.20;78.79;97749.66;5041765;28;20245;-53
2023/10/04 09:50:20;;;;;;;2.50;2.30;;;;;;;19.08;74.19;97740.25;5041634;28;20222;-51
2023/10/04 09:52:48;;;;;;;4.65;2.33;;;;;;;19.64;74.62;97744.69;5042780;28;20196;-53
2023/10/04 09:55:15;;;;;;;4.68;2.47;;;;;;;19.95;71.71;97732.16;5042265;28;20257;-50
2023/10/04 09:57:43;;;;;;;4.38;2.60;;;;;;;20.45;74.13;97720.97;5042183;28;20320;-51
2023/10/04 10:00:17;;;;;;;2.90;2.53;;;;;;;20.80;71.22;97728.44;5041921;28;20243;-52
2023/10/04 10:02:46;;;;;;;2.42;2.10;;;;;;;20.92;68.95;97723.47;5041225;28;20278;-57
2023/10/04 10:05:19;;;;;;;2.88;1.92;;;;;;;21.06;69.62;97719.97;5040835;28;20280;-52
2023/10/04 10:07:49;;;;;;;3.03;2.45;;;;;;;21.16;68.58;97722.44;5042346;28;20279;-51
2023/10/04 10:10:18;;;;;;;2.92;2.30;;;;;;;21.40;68.60;97727.56;5042206;28;20207;-53
2023/10/04 10:12:45;;;;;;;3.75;2.72;;;;;;;21.37;67.09;97714.47;5041637;28;20250;-50
2023/10/04 10:15:13;;;;;;;3.70;2.50;;;;;;;21.68;67.49;97717.00;5041684;28;20207;-52
2023/10/04 10:17:40;;;;;;;3.00;2.03;;;;;;;21.51;65.26;97716.34;5042209;28;20220;-54
2023/10/04 10:20:11;;;;;;;2.75;2.55;;;;;;;21.49;65.30;97712.16;5041295;28;20209;-59
2023/10/04 10:23:13;;;;;;;3.22;2.40;;;;;;;21.58;66.23;97716.44;5041793;28;20206;-52
2023/10/04 10:25:41;;;;;;;3.15;2.60;;;;;;;21.74;64.77;97711.72;5041282;28;20202;-52
2023/10/04 10:28:19;;;;;;;3.17;2.58;;;;;;;21.96;65.29;97709.97;5043287;28;20230;-54
2023/10/04 10:30:46;;;;;;;2.65;2.35;;;;;;;21.57;64.42;97699.47;5047217;28;20195;-52
2023/10/04 10:33:13;;;;;;;2.78;2.58;;;;;;;21.75;67.17;97697.19;5045209;28;20211;-52
2023/10/04 10:36:00;;;;;;;2.92;2.20;;;;;;;22.11;65.80;97694.56;5043479;28;20208;-52
2023/10/04 10:38:39;;;;;;;3.28;2.33;;;;;;;22.31;63.54;97692.13;5040434;28;20235;-54
2023/10/04 10:41:06;;;;;;;3.80;2.33;;;;;;;22.40;62.82;97693.66;5045712;28;20211;-54
2023/10/04 10:43:35;;;;;;;3.42;2.05;;;;;;;22.49;62.08;97692.50;5042991;28;20210;-54
2023/10/04 10:46:28;;;;;;;2.92;2.28;;;;;;;21.75;65.36;97691.81;5041362;28;20230;-51
2023/10/04 10:48:58;;;;;;;3.05;2.28;;;;;;;21.81;62.09;97701.03;5040318;28;20215;-55
2023/10/04 10:51:43;;;;;;;4.10;2.38;;;;;;;22.49;63.42;97695.22;5041434;28;20539;-53
2023/10/04 10:54:10;;;;;;;3.50;2.42;;;;;;;22.92;63.25;97697.91;5040678;28;20624;-52
2023/10/04 10:56:37;;;;;;;3.95;2.80;;;;;;;23.63;60.66;97689.50;5040810;28;20711;-50
2023/10/04 10:59:05;;;;;;;3.35;2.10;;;;;;;23.68;56.58;97692.44;5041827;28;20282;-52
2023/10/04 11:01:32;;;;;;;4.22;2.33;;;;;;;23.17;60.25;97694.56;5043440;28;20207;-52
2023/10/04 11:03:59;;;;;;;3.63;2.58;;;;;;;23.52;60.09;97689.25;5042763;28;20540;-54
2023/10/04 11:06:27;;;;;;;2.90;2.58;;;;;;;24.06;58.09;97702.78;5043520;28;20299;-52
2023/10/04 11:08:55;;;;;;;3.97;2.63;;;;;;;24.10;56.94;97695.94;5043507;28;20267;-53
2023/10/04 11:11:23;;;;;;;2.80;2.17;;;;;;;23.89;58.64;97696.06;5043255;28;20215;-51
2023/10/04 11:13:50;;;;;;;3.05;2.10;;;;;;;23.56;58.98;97693.22;5042815;28;20228;-51
2023/10/04 11:16:16;;;;;;;2.97;2.15;;;;;;;22.69;63.52;97690.88;5045681;28;20231;-51
2023/10/04 11:18:47;;;;;;;3.22;2.65;;;;;;;22.10;64.05;97678.63;5046404;28;20254;-52
2023/10/04 11:21:13;;;;;;;3.33;2.30;;;;;;;21.35;66.85;97678.84;5044314;28;21536;-52
2023/10/04 11:23:40;;;;;;;2.95;2.30;;;;;;;22.14;65.14;97685.28;5044072;28;20226;-50
2023/10/04 11:26:09;;;;;;;4.40;2.60;;;;;;;22.70;60.77;97670.97;5044707;28;20195;-51
2023/10/04 11:28:36;;;;;;;3.33;2.67;;;;;;;23.24;58.98;97679.25;5044011;28;20199;-52
2023/10/04 11:31:03;;;;;;;4.05;2.72;;;;;;;23.61;59.10;97669.13;5046266;28;20262;-50
2023/10/04 11:33:30;;;;;;;2.10;1.95;;;;;;;23.87;55.99;97663.03;5044448;28;20278;-51